createdAt,value
2022-12-11T00:01:10.786Z,99353.47
2022-12-11T00:03:42.393Z,99346.06
2022-12-11T00:06:11.746Z,99354.25
2022-12-11T00:08:39.853Z,99350.34
2022-12-11T00:11:08.965Z,99353.06
2022-12-11T00:13:37.106Z,99358.22
2022-12-11T00:16:04.900Z,99359.63
2022-12-11T00:18:34.291Z,99349.19
2022-12-11T00:21:01.912Z,99336.00
2022-12-11T00:23:29.821Z,99343.81
2022-12-11T00:25:59.890Z,99346.06
2022-12-11T00:28:27.604Z,99356.53
2022-12-11T00:30:55.175Z,99352.84
2022-12-11T00:33:23.195Z,99353.28
2022-12-11T00:35:52.196Z,99348.19
2022-12-11T00:38:21.763Z,99354.47
2022-12-11T00:40:49.333Z,99355.16
2022-12-11T00:43:17.750Z,99348.00
2022-12-11T00:45:47.449Z,99338.53
2022-12-11T00:48:15.437Z,99344.63
2022-12-11T00:50:43.210Z,99343.38
2022-12-11T00:53:12.531Z,99344.66
2022-12-11T00:55:41.867Z,99339.13
2022-12-11T00:58:11.330Z,99341.41
2022-12-11T01:00:39.565Z,99340.41
2022-12-11T01:03:07.524Z,99348.53
2022-12-11T01:05:35.164Z,99355.06
2022-12-11T01:08:03.605Z,99363.84
2022-12-11T01:10:32.716Z,99373.03
2022-12-11T01:13:03.259Z,99378.22
2022-12-11T01:15:32.762Z,99373.91
2022-12-11T01:18:00.419Z,99372.50
2022-12-11T01:20:30.282Z,99371.09
2022-12-11T01:23:00.546Z,99371.91
2022-12-11T01:25:28.429Z,99384.59
2022-12-11T01:27:57.398Z,99374.84
2022-12-11T01:30:28.271Z,99371.19
2022-12-11T01:32:56.031Z,99378.63
2022-12-11T01:35:23.620Z,99383.50
2022-12-11T01:37:51.410Z,99380.59
2022-12-11T01:40:20.366Z,99378.66
2022-12-11T01:42:48.350Z,99377.75
2022-12-11T01:45:29.776Z,99378.19
2022-12-11T01:48:01.974Z,99372.63
2022-12-11T01:50:31.413Z,99376.19
2022-12-11T01:53:04.216Z,99370.91
2022-12-11T01:55:32.797Z,99360.66
2022-12-11T01:58:02.376Z,99363.44
2022-12-11T02:00:31.263Z,99357.81
2022-12-11T02:02:59.097Z,99346.25
2022-12-11T02:05:26.419Z,99345.25
2022-12-11T02:07:57.643Z,99328.41
2022-12-11T02:10:32.992Z,99323.50
2022-12-11T02:13:07.713Z,99328.97
2022-12-11T02:15:42.815Z,99322.22
2022-12-11T02:18:19.179Z,99324.19
2022-12-11T02:20:54.779Z,99330.59
2022-12-11T02:23:55.443Z,99323.00
2022-12-11T02:26:52.004Z,99321.56
2022-12-11T02:29:26.217Z,99318.66
2022-12-11T02:32:00.015Z,99320.84
2022-12-11T02:34:32.523Z,99319.78
2022-12-11T02:37:04.504Z,99318.66
2022-12-11T02:39:36.014Z,99327.31
2022-12-11T02:42:05.139Z,99328.41
2022-12-11T02:44:36.090Z,99324.84
2022-12-11T02:47:07.116Z,99326.41
2022-12-11T02:49:35.897Z,99325.56
2022-12-11T02:52:05.398Z,99328.16
2022-12-11T02:54:37.311Z,99328.91
2022-12-11T02:57:09.647Z,99328.78
2022-12-11T02:59:41.775Z,99331.25
2022-12-11T03:02:09.892Z,99336.06
2022-12-11T03:04:38.027Z,99338.28
2022-12-11T03:07:10.407Z,99332.72
2022-12-11T03:09:38.974Z,99330.41
2022-12-11T03:12:07.957Z,99325.84
2022-12-11T03:14:36.239Z,99327.56
2022-12-11T03:17:12.332Z,99328.59
2022-12-11T03:19:44.951Z,99317.44
2022-12-11T03:22:17.574Z,99327.09
2022-12-11T03:24:47.205Z,99325.94
2022-12-11T03:27:22.601Z,99323.53
2022-12-11T03:29:57.333Z,99323.53
2022-12-11T03:32:31.333Z,99340.78
2022-12-11T03:35:03.970Z,99326.53
2022-12-11T03:37:38.105Z,99329.16
2022-12-11T03:40:10.841Z,99324.84
2022-12-11T03:42:40.459Z,99321.91
2022-12-11T03:45:09.599Z,99328.47
2022-12-11T03:47:41.775Z,99323.13
2022-12-11T03:50:12.534Z,99320.41
2022-12-11T03:52:45.729Z,99320.53
2022-12-11T03:55:17.111Z,99317.75
2022-12-11T03:57:44.601Z,99320.06
2022-12-11T04:00:15.396Z,99324.84
2022-12-11T04:02:45.248Z,99312.13
2022-12-11T04:05:13.733Z,99306.34
2022-12-11T04:07:41.293Z,99299.19
2022-12-11T04:10:10.379Z,99309.63
2022-12-11T04:12:37.715Z,99311.38
2022-12-11T04:15:06.281Z,99302.53
2022-12-11T04:17:36.602Z,99301.44
2022-12-11T04:20:07.168Z,99302.03
2022-12-11T04:22:34.374Z,99304.28
2022-12-11T04:25:03.034Z,99299.81
2022-12-11T04:27:30.457Z,99299.31
2022-12-11T04:29:58.131Z,99300.66
2022-12-11T04:32:25.468Z,99299.38
2022-12-11T04:34:53.116Z,99313.69
2022-12-11T04:37:21.917Z,99304.47
2022-12-11T04:39:49.817Z,99300.22
2022-12-11T04:42:17.528Z,99302.59
2022-12-11T04:44:45.499Z,99308.09
2022-12-11T04:47:12.776Z,99305.09
2022-12-11T04:49:40.395Z,99304.34
2022-12-11T04:52:07.693Z,99298.53
2022-12-11T04:54:36.846Z,99287.19
2022-12-11T04:57:04.400Z,99290.88
2022-12-11T04:59:32.251Z,99288.47
2022-12-11T05:01:59.698Z,99288.44
2022-12-11T05:04:31.405Z,99276.47
2022-12-11T05:06:59.251Z,99287.25
2022-12-11T05:09:27.674Z,99284.59
2022-12-11T05:11:56.678Z,99276.19
2022-12-11T05:14:24.445Z,99273.84
2022-12-11T05:16:51.903Z,99280.78
2022-12-11T05:19:19.715Z,99276.22
2022-12-11T05:21:47.326Z,99281.63
2022-12-11T05:24:15.161Z,99272.41
2022-12-11T05:26:42.680Z,99278.97
2022-12-11T05:29:11.785Z,99274.69
2022-12-11T05:31:39.208Z,99279.25
2022-12-11T05:34:06.997Z,99276.63
2022-12-11T05:36:34.986Z,99275.06
2022-12-11T05:39:04.762Z,99280.22
2022-12-11T05:41:32.835Z,99274.44
2022-12-11T05:44:00.880Z,99279.44
2022-12-11T05:46:31.346Z,99281.63
2022-12-11T05:49:00.935Z,99274.47
2022-12-11T05:51:29.612Z,99278.66
2022-12-11T05:53:58.232Z,99277.59
2022-12-11T05:56:27.239Z,99274.25
2022-12-11T05:58:56.493Z,99273.16
2022-12-11T06:01:26.297Z,99283.09
2022-12-11T06:03:56.826Z,99275.19
2022-12-11T06:06:24.874Z,99282.41
2022-12-11T06:08:53.017Z,99283.41
2022-12-11T06:11:23.927Z,99280.06
2022-12-11T06:13:52.818Z,99277.88
2022-12-11T06:16:21.277Z,99274.00
2022-12-11T06:18:49.215Z,99285.41
2022-12-11T06:21:20.345Z,99288.00
2022-12-11T06:23:50.060Z,99294.66
2022-12-11T06:26:18.366Z,99288.13
2022-12-11T06:28:47.061Z,99289.44
2022-12-11T06:31:15.581Z,99287.31
2022-12-11T06:33:43.964Z,99306.53
2022-12-11T06:36:13.252Z,99304.56
2022-12-11T06:38:42.689Z,99297.47
2022-12-11T06:41:10.455Z,99302.22
2022-12-11T06:43:39.871Z,99313.19
2022-12-11T06:46:09.054Z,99310.41
2022-12-11T06:48:37.166Z,99314.59
2022-12-11T06:51:08.868Z,99318.72
2022-12-11T06:53:36.940Z,99321.44
2022-12-11T06:56:07.486Z,99321.66
2022-12-11T06:58:36.244Z,99320.13
2022-12-11T07:01:05.002Z,99311.13
2022-12-11T07:03:32.843Z,99312.84
2022-12-11T07:06:01.488Z,99323.81
2022-12-11T07:08:29.641Z,99323.00
2022-12-11T07:11:03.454Z,99325.63
2022-12-11T07:13:32.622Z,99326.56
2022-12-11T07:16:00.172Z,99334.63
2022-12-11T07:18:28.089Z,99325.34
2022-12-11T07:20:57.680Z,99328.44
2022-12-11T07:23:25.731Z,99331.78
2022-12-11T07:25:53.254Z,99332.97
2022-12-11T07:28:20.998Z,99338.84
2022-12-11T07:30:49.950Z,99337.91
2022-12-11T07:33:17.740Z,99332.03
2022-12-11T07:35:45.050Z,99325.44
2022-12-11T07:38:12.828Z,99342.50
2022-12-11T07:40:40.221Z,99332.59
2022-12-11T07:43:08.044Z,99332.34
2022-12-11T07:45:35.405Z,99331.41
2022-12-11T07:48:04.994Z,99338.56
2022-12-11T07:50:36.602Z,99336.41
2022-12-11T07:53:07.415Z,99341.19
2022-12-11T07:55:34.698Z,99338.91
2022-12-11T07:58:02.616Z,99337.31
2022-12-11T08:00:29.950Z,99336.16
2022-12-11T08:02:57.711Z,99335.44
2022-12-11T08:05:26.432Z,99333.84
2022-12-11T08:07:54.205Z,99339.13
2022-12-11T08:10:21.694Z,99339.59
2022-12-11T08:12:49.416Z,99335.41
2022-12-11T08:15:16.972Z,99332.59
2022-12-11T08:17:44.648Z,99325.53
2022-12-11T08:20:14.639Z,99323.88
2022-12-11T08:22:43.892Z,99333.38
2022-12-11T08:25:11.691Z,99340.59
2022-12-11T08:27:39.623Z,99340.13
2022-12-11T08:30:08.164Z,99339.63
2022-12-11T08:32:35.864Z,99338.22
2022-12-11T08:35:03.846Z,99345.16
2022-12-11T08:37:32.091Z,99337.59
2022-12-11T08:40:01.042Z,99343.38
2022-12-11T08:42:28.710Z,99339.63
2022-12-11T08:44:56.375Z,99337.47
2022-12-11T08:47:24.195Z,99340.38
2022-12-11T08:49:51.619Z,99336.56
2022-12-11T08:52:19.647Z,99336.78
2022-12-11T08:54:47.045Z,99336.06
2022-12-11T08:57:16.283Z,99338.13
2022-12-11T08:59:43.678Z,99338.94
2022-12-11T09:02:12.269Z,99338.91
2022-12-11T09:04:40.075Z,99340.13
2022-12-11T09:07:07.832Z,99339.41
2022-12-11T09:09:35.224Z,99344.44
2022-12-11T09:12:03.051Z,99331.16
2022-12-11T09:14:31.892Z,99335.91
2022-12-11T09:16:59.649Z,99327.13
2022-12-11T09:19:32.011Z,99331.84
2022-12-11T09:22:00.101Z,99331.47
2022-12-11T09:24:27.520Z,99326.69
2022-12-11T09:26:55.549Z,99318.28
2022-12-11T09:29:22.851Z,99321.03
2022-12-11T09:31:51.989Z,99312.84
2022-12-11T09:34:19.459Z,99301.44
2022-12-11T09:36:47.148Z,99304.19
2022-12-11T09:39:15.524Z,99303.59
2022-12-11T09:41:53.135Z,99298.28
2022-12-11T09:44:31.109Z,99300.72
2022-12-11T09:47:00.864Z,99297.59
2022-12-11T09:49:35.069Z,99296.94
2022-12-11T09:52:10.577Z,99291.91
2022-12-11T09:54:43.049Z,99294.81
2022-12-11T09:57:20.348Z,99288.81
2022-12-11T10:00:05.116Z,99284.53
2022-12-11T10:02:40.640Z,99275.75
2022-12-11T10:05:18.066Z,99280.59
2022-12-11T10:07:51.899Z,99271.22
2022-12-11T10:10:26.125Z,99262.19
2022-12-11T10:13:04.161Z,99266.34
2022-12-11T10:15:39.748Z,99258.75
2022-12-11T10:18:16.188Z,99258.41
2022-12-11T10:20:44.026Z,99256.44
2022-12-11T10:23:19.517Z,99253.88
2022-12-11T10:25:51.712Z,99245.53
2022-12-11T10:28:20.867Z,99245.22
2022-12-11T10:30:53.252Z,99243.44
2022-12-11T10:33:26.954Z,99241.28
2022-12-11T10:35:56.556Z,99251.47
2022-12-11T10:38:28.463Z,99245.00
2022-12-11T10:40:59.439Z,99249.34
2022-12-11T10:43:35.234Z,99250.44
2022-12-11T10:46:03.447Z,99250.75
2022-12-11T10:48:33.309Z,99242.34
2022-12-11T10:51:03.429Z,99243.06
2022-12-11T10:53:33.573Z,99232.63
2022-12-11T10:56:03.079Z,99240.25
2022-12-11T10:58:32.671Z,99237.38
2022-12-11T11:01:09.106Z,99237.00
2022-12-11T11:03:52.131Z,99237.59
2022-12-11T11:06:21.265Z,99229.59
2022-12-11T11:08:50.855Z,99223.94
2022-12-11T11:11:26.932Z,99227.84
2022-12-11T11:14:22.841Z,99218.78
2022-12-11T11:16:52.776Z,99210.03
2022-12-11T11:19:24.899Z,99206.28
2022-12-11T11:21:54.262Z,99205.00
2022-12-11T11:24:28.007Z,99201.28
2022-12-11T11:27:12.703Z,99197.22
2022-12-11T11:29:42.105Z,99198.66
2022-12-11T11:32:19.365Z,99195.41
2022-12-11T11:34:48.745Z,99197.38
2022-12-11T11:37:32.516Z,99193.66
2022-12-11T11:40:08.124Z,99184.31
2022-12-11T11:42:45.411Z,99188.09
2022-12-11T11:45:17.701Z,99182.25
2022-12-11T11:47:55.774Z,99183.97
2022-12-11T11:50:30.083Z,99185.28
2022-12-11T11:53:02.854Z,99173.97
2022-12-11T11:55:40.063Z,99184.50
2022-12-11T11:58:12.691Z,99170.81
2022-12-11T12:00:40.521Z,99173.59
2022-12-11T12:03:12.779Z,99177.75
2022-12-11T12:05:51.327Z,99182.28
2022-12-11T12:08:32.091Z,99180.97
2022-12-11T12:11:07.414Z,99181.16
2022-12-11T12:13:49.456Z,99177.59
2022-12-11T12:16:52.082Z,99184.53
2022-12-11T12:19:31.983Z,99173.59
2022-12-11T12:22:12.282Z,99183.34
2022-12-11T12:24:48.903Z,99181.63
2022-12-11T12:27:50.919Z,99179.47
2022-12-11T12:30:16.138Z,99180.16
2022-12-11T12:32:59.482Z,99184.09
2022-12-11T12:35:35.268Z,99187.16
2022-12-11T12:38:18.729Z,99178.34
2022-12-11T12:41:00.186Z,99174.28
2022-12-11T12:43:52.878Z,99170.94
2022-12-11T12:46:29.163Z,99176.19
2022-12-11T12:49:00.256Z,99176.41
2022-12-11T12:51:29.199Z,99170.72
2022-12-11T12:54:00.554Z,99175.06
2022-12-11T12:56:31.963Z,99173.00
2022-12-11T12:58:59.816Z,99174.19
2022-12-11T13:01:30.530Z,99177.41
2022-12-11T13:04:00.951Z,99176.13
2022-12-11T13:06:31.382Z,99173.00
2022-12-11T13:09:13.931Z,99181.06
2022-12-11T13:11:41.266Z,99188.63
2022-12-11T13:14:24.979Z,99176.66
2022-12-11T13:16:53.608Z,99174.78
2022-12-11T13:19:28.295Z,99178.47
2022-12-11T13:21:57.688Z,99182.72
2022-12-11T13:24:28.935Z,99175.63
2022-12-11T13:26:56.878Z,99174.28
2022-12-11T13:29:33.998Z,99174.38
2022-12-11T13:32:03.450Z,99178.25
2022-12-11T13:34:33.595Z,99175.84
2022-12-11T13:37:02.649Z,99172.84
2022-12-11T13:39:35.037Z,99174.09
2022-12-11T13:42:06.934Z,99166.66
2022-12-11T13:44:39.274Z,99172.28
2022-12-11T13:47:12.725Z,99173.28
2022-12-11T13:49:43.876Z,99170.66
2022-12-11T13:52:18.965Z,99167.19
2022-12-11T13:54:52.393Z,99170.47
2022-12-11T13:57:20.574Z,99171.75
2022-12-11T13:59:50.295Z,99175.28
2022-12-11T14:02:21.558Z,99166.31
2022-12-11T14:04:52.766Z,99173.50
2022-12-11T14:07:25.402Z,99178.78
2022-12-11T14:10:00.956Z,99189.94
2022-12-11T14:12:29.917Z,99178.72
2022-12-11T14:15:03.049Z,99184.69
2022-12-11T14:17:33.154Z,99173.53
2022-12-11T14:20:04.478Z,99167.88
2022-12-11T14:22:32.340Z,99178.06
2022-12-11T14:25:03.113Z,99182.75
2022-12-11T14:27:31.075Z,99181.91
2022-12-11T14:30:09.800Z,99178.31
2022-12-11T14:32:43.189Z,99168.19
2022-12-11T14:35:21.469Z,99175.28
2022-12-11T14:37:49.359Z,99171.63
2022-12-11T14:40:22.886Z,99183.00
2022-12-11T14:42:59.974Z,99178.63
2022-12-11T14:45:34.039Z,99170.53
2022-12-11T14:48:04.398Z,99172.19
2022-12-11T14:50:39.493Z,99179.16
2022-12-11T14:53:11.143Z,99166.56
2022-12-11T14:55:41.976Z,99171.63
2022-12-11T14:58:17.899Z,99180.13
2022-12-11T15:00:57.463Z,99185.41
2022-12-11T15:03:25.231Z,99184.78
2022-12-11T15:05:54.733Z,99175.63
2022-12-11T15:08:27.691Z,99185.09
2022-12-11T15:11:04.658Z,99178.91
2022-12-11T15:13:33.131Z,99177.09
2022-12-11T15:16:02.104Z,99178.78
2022-12-11T15:18:32.691Z,99183.00
2022-12-11T15:21:05.259Z,99172.53
2022-12-11T15:23:37.306Z,99173.16
2022-12-11T15:26:06.643Z,99179.16
2022-12-11T15:28:36.718Z,99179.47
2022-12-11T15:31:06.937Z,99178.63
2022-12-11T15:33:46.442Z,99174.94
2022-12-11T15:36:25.566Z,99185.41
2022-12-11T15:38:53.411Z,99180.84
2022-12-11T15:41:25.071Z,99183.47
2022-12-11T15:43:58.534Z,99189.22
2022-12-11T15:46:27.901Z,99179.59
2022-12-11T15:48:57.024Z,99186.06
2022-12-11T15:51:24.957Z,99184.56
2022-12-11T15:53:54.363Z,99178.72
2022-12-11T15:56:25.099Z,99180.59
2022-12-11T15:58:52.812Z,99174.13
2022-12-11T16:01:21.392Z,99180.59
2022-12-11T16:03:48.865Z,99173.63
2022-12-11T16:06:16.929Z,99174.03
2022-12-11T16:08:45.049Z,99179.03
2022-12-11T16:11:13.895Z,99179.88
2022-12-11T16:13:42.715Z,99174.28
2022-12-11T16:16:11.321Z,99189.00
2022-12-11T16:18:38.772Z,99173.78
2022-12-11T16:21:07.081Z,99181.56
2022-12-11T16:23:34.445Z,99188.88
2022-12-11T16:26:06.857Z,99181.28
2022-12-11T16:28:34.389Z,99191.81
2022-12-11T16:31:03.757Z,99185.66
2022-12-11T16:33:31.234Z,99184.97
2022-12-11T16:35:58.955Z,99185.13
2022-12-11T16:38:26.526Z,99183.84
2022-12-11T16:41:00.401Z,99184.78
2022-12-11T16:43:27.888Z,99174.44
2022-12-11T16:45:55.708Z,99176.22
2022-12-11T16:48:24.958Z,99182.03
2022-12-11T16:50:53.472Z,99172.75
2022-12-11T16:53:21.099Z,99173.00
2022-12-11T16:55:49.069Z,99172.75
2022-12-11T16:58:16.507Z,99170.63
2022-12-11T17:00:44.266Z,99167.88
2022-12-11T17:03:11.682Z,99162.28
2022-12-11T17:05:41.703Z,99163.13
2022-12-11T17:08:09.705Z,99165.53
2022-12-11T17:10:40.468Z,99160.25
2022-12-11T17:13:07.832Z,99154.69
2022-12-11T17:15:40.094Z,99163.47
2022-12-11T17:18:07.692Z,99161.81
2022-12-11T17:20:39.498Z,99163.72
2022-12-11T17:23:08.849Z,99156.88
2022-12-11T17:25:40.369Z,99166.84
2022-12-11T17:28:07.866Z,99162.78
2022-12-11T17:30:39.191Z,99161.44
2022-12-11T17:33:06.763Z,99161.69
2022-12-11T17:35:34.609Z,99165.03
2022-12-11T17:38:02.122Z,99155.44
2022-12-11T17:40:31.293Z,99159.75
2022-12-11T17:42:59.127Z,99156.84
2022-12-11T17:45:26.906Z,99157.56
2022-12-11T17:47:54.528Z,99154.91
2022-12-11T17:50:23.000Z,99157.94
2022-12-11T17:52:50.545Z,99165.88
2022-12-11T17:55:18.542Z,99172.22
2022-12-11T17:57:50.239Z,99172.47
2022-12-11T18:00:18.958Z,99168.03
2022-12-11T18:02:46.386Z,99168.50
2022-12-11T18:05:15.835Z,99171.53
2022-12-11T18:07:43.305Z,99173.66
2022-12-11T18:10:11.702Z,99181.69
2022-12-11T18:12:39.271Z,99170.53
2022-12-11T18:15:09.772Z,99175.59
2022-12-11T18:17:37.423Z,99170.31
2022-12-11T18:20:05.741Z,99171.16
2022-12-11T18:22:33.197Z,99181.34
2022-12-11T18:25:03.952Z,99177.13
2022-12-11T18:27:36.836Z,99173.78
2022-12-11T18:30:05.355Z,99171.03
2022-12-11T18:32:34.446Z,99175.97
2022-12-11T18:35:02.321Z,99175.25
2022-12-11T18:37:30.255Z,99186.97
2022-12-11T18:39:58.582Z,99178.81
2022-12-11T18:42:33.840Z,99173.78
2022-12-11T18:45:02.012Z,99179.44
2022-12-11T18:47:29.336Z,99181.81
2022-12-11T18:50:03.951Z,99179.91
2022-12-11T18:52:34.709Z,99176.19
2022-12-11T18:55:02.559Z,99176.78
2022-12-11T18:57:29.908Z,99176.22
2022-12-11T18:59:57.631Z,99176.91
2022-12-11T19:02:25.089Z,99180.03
2022-12-11T19:04:53.013Z,99176.69
2022-12-11T19:07:21.845Z,99167.94
2022-12-11T19:09:49.722Z,99171.41
2022-12-11T19:12:18.747Z,99164.59
2022-12-11T19:14:46.538Z,99160.03
2022-12-11T19:17:14.055Z,99158.81
2022-12-11T19:19:42.133Z,99159.31
2022-12-11T19:22:10.413Z,99159.19
2022-12-11T19:24:40.943Z,99146.13
2022-12-11T19:27:13.188Z,99156.88
2022-12-11T19:29:41.621Z,99156.44
2022-12-11T19:32:09.218Z,99149.81
2022-12-11T19:34:37.033Z,99153.91
2022-12-11T19:37:04.699Z,99153.41
2022-12-11T19:39:32.529Z,99150.31
2022-12-11T19:42:01.388Z,99149.22
2022-12-11T19:44:29.115Z,99146.59
2022-12-11T19:46:56.633Z,99145.50
2022-12-11T19:49:24.579Z,99144.09
2022-12-11T19:51:52.029Z,99151.03
2022-12-11T19:54:19.871Z,99153.91
2022-12-11T19:56:47.483Z,99155.22
2022-12-11T19:59:17.580Z,99149.84
2022-12-11T20:01:46.676Z,99152.25
2022-12-11T20:04:16.667Z,99152.59
2022-12-11T20:06:45.781Z,99156.44
2022-12-11T20:09:14.607Z,99151.53
2022-12-11T20:11:43.891Z,99150.69
2022-12-11T20:14:19.303Z,99153.41
2022-12-11T20:17:09.772Z,99149.94
2022-12-11T20:19:35.182Z,99144.91
2022-12-11T20:22:02.725Z,99137.13
2022-12-11T20:24:30.425Z,99135.84
2022-12-11T20:26:57.747Z,99136.31
2022-12-11T20:29:27.170Z,99142.78
2022-12-11T20:31:54.623Z,99139.41
2022-12-11T20:34:22.530Z,99142.16
2022-12-11T20:36:52.007Z,99142.41
2022-12-11T20:39:19.823Z,99146.47
2022-12-11T20:41:47.448Z,99142.03
2022-12-11T20:44:15.558Z,99143.75
2022-12-11T20:46:44.466Z,99137.00
2022-12-11T20:49:12.097Z,99141.44
2022-12-11T20:51:39.693Z,99137.72
2022-12-11T20:54:07.664Z,99129.34
2022-12-11T20:56:35.020Z,99134.75
2022-12-11T20:59:02.939Z,99140.50
2022-12-11T21:01:32.201Z,99131.16
2022-12-11T21:04:01.697Z,99128.41
2022-12-11T21:06:31.960Z,99131.50
2022-12-11T21:09:04.958Z,99139.41
2022-12-11T21:11:32.334Z,99134.50
2022-12-11T21:14:00.199Z,99134.88
2022-12-11T21:16:28.600Z,99133.06
2022-12-11T21:18:56.974Z,99137.25
2022-12-11T21:21:26.143Z,99123.72
2022-12-11T21:23:53.868Z,99129.59
2022-12-11T21:26:21.308Z,99127.31
2022-12-11T21:28:49.141Z,99133.66
2022-12-11T21:31:18.262Z,99132.94
2022-12-11T21:33:47.161Z,99134.63
2022-12-11T21:36:15.226Z,99126.47
2022-12-11T21:38:45.144Z,99124.34
2022-12-11T21:41:14.661Z,99128.03
2022-12-11T21:44:14.627Z,99131.72
2022-12-11T21:46:30.575Z,99127.88
2022-12-11T21:48:58.570Z,99139.06
2022-12-11T21:51:34.095Z,99138.09
2022-12-11T21:54:05.881Z,99134.50
2022-12-11T21:56:33.469Z,99132.31
2022-12-11T21:59:01.140Z,99135.94
2022-12-11T22:01:30.754Z,99132.13
2022-12-11T22:03:59.262Z,99129.47
2022-12-11T22:06:27.047Z,99132.22
2022-12-11T22:08:54.904Z,99137.13
2022-12-11T22:11:27.076Z,99133.06
2022-12-11T22:13:54.943Z,99126.97
2022-12-11T22:16:23.025Z,99128.97
2022-12-11T22:18:50.848Z,99114.00
2022-12-11T22:21:18.592Z,99117.72
2022-12-11T22:23:46.542Z,99119.53
2022-12-11T22:26:16.882Z,99119.66
2022-12-11T22:28:46.085Z,99115.31
2022-12-11T22:31:15.192Z,99121.56
2022-12-11T22:33:43.306Z,99111.09
2022-12-11T22:36:11.586Z,99108.72
2022-12-11T22:38:39.674Z,99117.34
2022-12-11T22:41:10.523Z,99112.69
2022-12-11T22:43:38.286Z,99115.78
2022-12-11T22:46:07.156Z,99115.66
2022-12-11T22:48:37.294Z,99114.94
2022-12-11T22:51:05.654Z,99109.09
2022-12-11T22:53:33.363Z,99114.50
2022-12-11T22:56:04.429Z,99118.56
2022-12-11T22:58:32.724Z,99115.81
2022-12-11T23:01:00.252Z,99108.72
2022-12-11T23:03:29.844Z,99107.63
2022-12-11T23:06:00.749Z,99110.06
2022-12-11T23:08:31.290Z,99109.91
2022-12-11T23:10:58.763Z,99106.56
2022-12-11T23:13:26.457Z,99111.00
2022-12-11T23:15:53.757Z,99105.94
2022-12-11T23:18:21.518Z,99102.97
2022-12-11T23:20:50.760Z,99104.75
2022-12-11T23:23:18.491Z,99103.53
2022-12-11T23:25:45.911Z,99106.38
2022-12-11T23:28:13.716Z,99101.97
2022-12-11T23:30:44.096Z,99103.75
2022-12-11T23:33:11.852Z,99114.44
2022-12-11T23:35:39.172Z,99109.66
2022-12-11T23:38:08.398Z,99103.97
2022-12-11T23:40:36.371Z,99100.56
2022-12-11T23:43:04.099Z,99102.03
2022-12-11T23:45:31.263Z,99100.81
2022-12-11T23:47:59.008Z,99109.34
2022-12-11T23:50:26.448Z,99106.50
2022-12-11T23:52:54.447Z,99112.94
2022-12-11T23:55:23.483Z,99115.47
2022-12-11T23:57:51.117Z,99105.66
